createdAt,value
2023-03-16T00:00:01.958Z,2.00
2023-03-16T00:02:52.560Z,1.98
2023-03-16T00:05:40.880Z,2.10
2023-03-16T00:08:29.213Z,2.01
2023-03-16T00:11:17.725Z,1.96
2023-03-16T00:14:07.581Z,1.90
2023-03-16T00:16:55.945Z,1.93
2023-03-16T00:19:46.832Z,1.95
2023-03-16T00:22:35.315Z,1.90
2023-03-16T00:25:24.409Z,1.79
2023-03-16T00:28:14.053Z,1.75
2023-03-16T00:31:04.533Z,1.64
2023-03-16T00:33:52.887Z,1.58
2023-03-16T00:36:42.589Z,1.50
2023-03-16T00:39:35.578Z,1.47
2023-03-16T00:42:27.442Z,1.47
2023-03-16T00:45:15.937Z,1.49
2023-03-16T00:48:05.718Z,1.51
2023-03-16T00:50:54.454Z,1.55
2023-03-16T00:53:44.511Z,1.37
2023-03-16T00:56:32.958Z,1.37
2023-03-16T00:59:21.794Z,1.33
2023-03-16T01:02:10.953Z,1.35
2023-03-16T01:05:01.968Z,1.32
2023-03-16T01:07:50.331Z,1.14
2023-03-16T01:10:40.500Z,1.17
2023-03-16T01:13:28.901Z,1.16
2023-03-16T01:16:18.955Z,0.97
2023-03-16T01:19:07.459Z,1.05
2023-03-16T01:21:57.297Z,1.03
2023-03-16T01:24:46.779Z,1.00
2023-03-16T01:27:35.180Z,0.99
2023-03-16T01:30:23.541Z,0.97
2023-03-16T01:33:12.120Z,0.98
2023-03-16T01:36:03.037Z,1.12
2023-03-16T01:39:00.259Z,1.06
2023-03-16T01:41:53.372Z,1.03
2023-03-16T01:44:52.774Z,0.95
2023-03-16T01:47:42.649Z,1.01
2023-03-16T01:50:34.771Z,1.07
2023-03-16T01:53:24.204Z,0.95
2023-03-16T01:56:16.835Z,0.92
2023-03-16T01:59:10.501Z,0.90
2023-03-16T02:01:59.703Z,0.42
2023-03-16T02:04:52.131Z,0.49
2023-03-16T02:07:44.904Z,0.67
2023-03-16T02:10:34.557Z,0.50
2023-03-16T02:13:25.049Z,0.40
2023-03-16T02:16:19.386Z,0.37
2023-03-16T02:19:11.013Z,0.35
2023-03-16T02:22:04.055Z,0.33
2023-03-16T02:24:53.564Z,0.29
2023-03-16T02:27:47.317Z,-0.35
2023-03-16T02:30:37.635Z,-0.40
2023-03-16T02:33:27.334Z,-0.19
2023-03-16T02:36:18.209Z,-0.03
2023-03-16T02:39:08.154Z,-0.04
2023-03-16T02:42:06.049Z,0.02
2023-03-16T02:44:57.133Z,0.05
2023-03-16T02:47:53.476Z,0.15
2023-03-16T02:50:49.399Z,0.16
2023-03-16T02:53:37.938Z,0.16
2023-03-16T02:56:26.427Z,0.20
2023-03-16T02:59:14.842Z,0.25
2023-03-16T03:02:03.494Z,0.21
2023-03-16T03:04:54.629Z,0.20
2023-03-16T03:07:44.672Z,0.20
2023-03-16T03:10:34.810Z,0.22
2023-03-16T03:13:24.134Z,0.20
2023-03-16T03:16:13.041Z,0.18
2023-03-16T03:19:01.528Z,0.18
2023-03-16T03:21:56.992Z,0.15
2023-03-16T03:24:45.813Z,0.13
2023-03-16T03:27:34.257Z,0.21
2023-03-16T03:30:26.517Z,0.10
2023-03-16T03:33:15.032Z,0.10
2023-03-16T03:36:03.556Z,0.09
2023-03-16T03:38:57.856Z,0.15
2023-03-16T03:41:46.343Z,0.16
2023-03-16T03:44:35.627Z,0.06
2023-03-16T03:47:24.010Z,0.06
2023-03-16T03:50:14.115Z,0.11
2023-03-16T03:53:18.801Z,0.09
2023-03-16T03:56:28.477Z,0.09
2023-03-16T03:59:16.907Z,0.08
2023-03-16T04:02:38.265Z,0.02
2023-03-16T04:05:28.645Z,0.02
2023-03-16T04:08:17.050Z,-0.05
2023-03-16T04:11:06.627Z,-0.07
2023-03-16T04:13:56.738Z,-0.07
2023-03-16T04:16:45.335Z,-0.06
2023-03-16T04:19:35.193Z,-0.08
2023-03-16T04:22:25.202Z,-0.07
2023-03-16T04:25:14.894Z,-0.10
2023-03-16T04:28:04.480Z,-0.05
2023-03-16T04:30:56.863Z,-0.05
2023-03-16T04:33:54.898Z,-0.15
2023-03-16T04:36:44.552Z,-0.19
2023-03-16T04:39:33.005Z,-0.12
2023-03-16T04:42:21.959Z,-0.07
2023-03-16T04:45:11.139Z,-0.14
2023-03-16T04:48:01.494Z,-0.09
2023-03-16T04:50:51.433Z,-0.08
2023-03-16T04:53:39.968Z,-0.13
2023-03-16T04:56:36.281Z,-0.18
2023-03-16T04:59:29.910Z,-0.22
2023-03-16T05:02:37.027Z,-0.22
2023-03-16T05:05:28.187Z,-0.24
2023-03-16T05:08:16.625Z,-0.31
2023-03-16T05:11:08.113Z,-0.30
2023-03-16T05:14:02.132Z,-0.30
2023-03-16T05:16:52.654Z,-0.33
2023-03-16T05:19:42.330Z,-0.31
2023-03-16T05:22:33.005Z,-0.28
2023-03-16T05:25:46.122Z,-0.30
2023-03-16T05:28:36.844Z,-0.27
2023-03-16T05:31:32.835Z,-0.29
2023-03-16T05:34:24.122Z,-0.24
2023-03-16T05:37:13.462Z,-0.25
2023-03-16T05:40:11.962Z,-0.28
2023-03-16T05:43:01.070Z,-0.29
2023-03-16T05:45:52.078Z,-0.29
2023-03-16T05:48:41.614Z,-0.26
2023-03-16T05:51:33.552Z,-0.31
2023-03-16T05:54:24.267Z,-0.25
2023-03-16T05:57:14.149Z,-0.33
2023-03-16T06:00:12.355Z,-0.28
2023-03-16T06:03:01.592Z,-0.23
2023-03-16T06:05:54.682Z,-0.22
2023-03-16T06:08:51.635Z,-0.21
2023-03-16T06:11:42.051Z,-0.23
2023-03-16T06:14:31.727Z,-0.22
2023-03-16T06:17:21.571Z,-0.21
2023-03-16T06:20:13.132Z,-0.20
2023-03-16T06:23:04.424Z,-0.24
2023-03-16T06:25:55.174Z,-0.20
2023-03-16T06:28:46.642Z,-0.13
2023-03-16T06:31:36.623Z,-0.08
2023-03-16T06:34:25.241Z,-0.09
2023-03-16T06:37:13.656Z,-0.09
2023-03-16T06:40:02.400Z,-0.06
2023-03-16T06:42:51.443Z,-0.01
2023-03-16T06:45:40.032Z,0.01
2023-03-16T06:48:30.363Z,-0.02
2023-03-16T06:51:19.243Z,0.03
2023-03-16T06:54:08.908Z,0.08
2023-03-16T06:57:01.468Z,0.12
2023-03-16T06:59:49.785Z,0.13
2023-03-16T07:02:40.441Z,0.07
2023-03-16T07:05:31.518Z,0.13
2023-03-16T07:08:21.065Z,0.20
2023-03-16T07:11:09.479Z,0.24
2023-03-16T07:13:58.693Z,0.31
2023-03-16T07:16:48.290Z,0.34
2023-03-16T07:19:38.264Z,0.35
2023-03-16T07:22:27.996Z,0.42
2023-03-16T07:25:16.377Z,0.43
2023-03-16T07:28:11.680Z,0.43
2023-03-16T07:31:04.432Z,0.51
2023-03-16T07:34:00.131Z,0.55
2023-03-16T07:36:57.360Z,0.53
2023-03-16T07:39:49.756Z,0.63
2023-03-16T07:42:41.115Z,0.73
2023-03-16T07:45:31.588Z,0.77
2023-03-16T07:48:20.908Z,0.89
2023-03-16T07:51:16.534Z,0.94
2023-03-16T07:54:08.629Z,0.99
2023-03-16T07:56:59.158Z,1.10
2023-03-16T08:00:09.031Z,1.13
2023-03-16T08:03:06.305Z,1.21
2023-03-16T08:05:55.113Z,1.34
2023-03-16T08:08:43.948Z,1.45
2023-03-16T08:11:39.216Z,1.57
2023-03-16T08:14:29.034Z,1.61
2023-03-16T08:17:32.185Z,1.62
2023-03-16T08:20:22.635Z,1.73
2023-03-16T08:23:11.757Z,1.88
2023-03-16T08:26:03.080Z,1.94
2023-03-16T08:28:52.914Z,2.04
2023-03-16T08:31:42.964Z,2.18
2023-03-16T08:34:40.868Z,2.12
2023-03-16T08:37:30.395Z,2.17
2023-03-16T08:40:21.120Z,2.21
2023-03-16T08:43:09.721Z,2.19
2023-03-16T08:45:59.097Z,2.26
2023-03-16T08:48:56.877Z,2.40
2023-03-16T08:51:46.839Z,2.47
2023-03-16T08:54:35.250Z,2.54
2023-03-16T08:57:23.706Z,2.61
2023-03-16T09:00:14.890Z,2.68
2023-03-16T09:03:03.588Z,2.83
2023-03-16T09:05:53.251Z,2.87
2023-03-16T09:08:41.898Z,2.88
2023-03-16T09:11:33.611Z,2.95
2023-03-16T09:14:21.971Z,3.13
2023-03-16T09:17:11.745Z,3.03
2023-03-16T09:20:15.111Z,3.13
2023-03-16T09:23:09.195Z,3.22
2023-03-16T09:25:59.370Z,3.26
2023-03-16T09:28:48.112Z,3.33
2023-03-16T09:31:37.633Z,3.37
2023-03-16T09:34:26.200Z,3.36
2023-03-16T09:37:15.501Z,3.52
2023-03-16T09:40:10.318Z,3.56
2023-03-16T09:43:12.172Z,3.53
2023-03-16T09:46:05.537Z,3.66
2023-03-16T09:48:55.774Z,3.56
2023-03-16T09:51:47.087Z,3.61
2023-03-16T09:54:39.624Z,3.64
2023-03-16T09:57:32.394Z,3.73
2023-03-16T10:00:23.090Z,3.78
2023-03-16T10:03:18.684Z,3.70
2023-03-16T10:06:11.153Z,3.60
2023-03-16T10:09:06.988Z,3.71
2023-03-16T10:11:56.863Z,3.91
2023-03-16T10:14:50.183Z,3.83
2023-03-16T10:17:40.318Z,3.90
2023-03-16T10:20:33.101Z,4.03
2023-03-16T10:23:24.326Z,4.13
2023-03-16T10:26:16.730Z,4.16
2023-03-16T10:29:07.532Z,4.24
2023-03-16T10:32:01.522Z,4.30
2023-03-16T10:34:55.231Z,4.34
2023-03-16T10:37:43.634Z,4.56
2023-03-16T10:40:32.994Z,4.63
2023-03-16T10:43:21.329Z,4.66
2023-03-16T10:46:14.714Z,4.69
2023-03-16T10:49:04.589Z,4.80
2023-03-16T10:51:54.836Z,4.98
2023-03-16T10:54:49.679Z,5.08
2023-03-16T10:57:39.122Z,4.99
2023-03-16T11:00:29.987Z,5.10
2023-03-16T11:03:23.946Z,5.17
2023-03-16T11:06:22.897Z,5.21
2023-03-16T11:09:16.513Z,5.17
2023-03-16T11:12:15.568Z,5.22
2023-03-16T11:15:07.464Z,5.43
2023-03-16T11:17:57.666Z,5.58
2023-03-16T11:20:46.015Z,5.62
2023-03-16T11:23:38.637Z,5.83
2023-03-16T11:26:32.320Z,5.92
2023-03-16T11:29:24.883Z,5.92
2023-03-16T11:32:15.667Z,5.86
2023-03-16T11:35:08.834Z,5.96
2023-03-16T11:38:07.197Z,6.07
2023-03-16T11:41:00.263Z,6.10
2023-03-16T11:43:52.055Z,6.18
2023-03-16T11:46:43.130Z,6.27
2023-03-16T11:49:42.949Z,6.27
2023-03-16T11:52:39.638Z,6.41
2023-03-16T11:55:39.174Z,6.23
2023-03-16T11:58:41.149Z,6.35
2023-03-16T12:01:43.064Z,6.50
2023-03-16T12:04:45.104Z,6.60
2023-03-16T12:07:44.053Z,6.61
2023-03-16T12:10:36.272Z,6.86
2023-03-16T12:13:33.737Z,7.17
2023-03-16T12:16:33.212Z,6.99
2023-03-16T12:19:33.634Z,7.28
2023-03-16T12:22:25.336Z,7.16
2023-03-16T12:25:17.271Z,7.22
2023-03-16T12:28:11.657Z,7.31
2023-03-16T12:31:10.020Z,7.27
2023-03-16T12:34:13.440Z,7.52
2023-03-16T12:37:08.145Z,7.29
2023-03-16T12:40:09.034Z,7.25
2023-03-16T12:43:23.910Z,7.48
2023-03-16T12:46:14.431Z,7.64
2023-03-16T12:49:06.752Z,7.76
2023-03-16T12:52:02.905Z,7.74
2023-03-16T12:54:52.941Z,7.81
2023-03-16T12:57:41.473Z,7.86
2023-03-16T13:00:37.672Z,7.87
2023-03-16T13:03:26.541Z,7.78
2023-03-16T13:06:24.900Z,7.83
2023-03-16T13:09:15.218Z,7.83
2023-03-16T13:12:05.464Z,8.13
2023-03-16T13:14:54.914Z,8.14
2023-03-16T13:17:43.296Z,8.08
2023-03-16T13:20:33.784Z,8.21
2023-03-16T13:23:25.958Z,8.17
2023-03-16T13:26:16.400Z,8.25
2023-03-16T13:29:11.917Z,8.32
2023-03-16T13:32:01.847Z,8.21
2023-03-16T13:34:51.932Z,8.34
2023-03-16T13:37:41.837Z,8.28
2023-03-16T13:40:31.568Z,8.38
2023-03-16T13:43:23.530Z,8.53
2023-03-16T13:46:17.090Z,8.39
2023-03-16T13:49:06.021Z,8.41
2023-03-16T13:51:54.637Z,8.42
2023-03-16T13:54:43.226Z,8.38
2023-03-16T13:57:37.408Z,8.39
2023-03-16T14:00:28.052Z,8.45
2023-03-16T14:03:20.054Z,8.62
2023-03-16T14:06:10.419Z,8.78
2023-03-16T14:09:01.408Z,8.78
2023-03-16T14:11:49.880Z,8.59
2023-03-16T14:14:41.248Z,8.55
2023-03-16T14:17:29.787Z,8.64
2023-03-16T14:20:21.012Z,8.80
2023-03-16T14:23:18.659Z,8.77
2023-03-16T14:26:08.033Z,8.89
2023-03-16T14:28:58.850Z,9.25
2023-03-16T14:31:49.631Z,9.53
2023-03-16T14:34:39.608Z,9.53
2023-03-16T14:37:35.709Z,10.00
2023-03-16T14:40:27.237Z,10.35
2023-03-16T14:43:15.814Z,10.27
2023-03-16T14:46:06.218Z,10.40
2023-03-16T14:49:03.669Z,10.94
2023-03-16T14:51:53.890Z,11.08
2023-03-16T14:54:42.560Z,11.42
2023-03-16T14:57:31.348Z,11.86
2023-03-16T15:00:21.604Z,11.41
2023-03-16T15:03:12.831Z,11.70
2023-03-16T15:06:03.157Z,12.17
2023-03-16T15:08:51.564Z,12.28
2023-03-16T15:11:43.222Z,12.53
2023-03-16T15:14:48.939Z,12.88
2023-03-16T15:17:37.569Z,12.64
2023-03-16T15:20:31.750Z,12.63
2023-03-16T15:23:21.450Z,13.02
2023-03-16T15:26:10.204Z,12.94
2023-03-16T15:28:58.828Z,13.06
2023-03-16T15:31:47.304Z,12.57
2023-03-16T15:34:35.790Z,11.75
2023-03-16T15:37:27.682Z,12.05
2023-03-16T15:40:23.006Z,12.22
2023-03-16T15:43:13.174Z,12.25
2023-03-16T15:46:01.598Z,12.25
2023-03-16T15:48:50.322Z,12.36
2023-03-16T15:51:38.787Z,12.31
2023-03-16T15:54:27.165Z,11.87
2023-03-16T15:57:16.851Z,11.54
2023-03-16T16:00:07.247Z,11.12
2023-03-16T16:02:57.756Z,10.76
2023-03-16T16:05:46.197Z,10.68
2023-03-16T16:08:34.640Z,10.67
2023-03-16T16:11:25.888Z,10.40
2023-03-16T16:14:17.323Z,10.37
2023-03-16T16:17:06.726Z,10.35
2023-03-16T16:19:55.292Z,10.25
2023-03-16T16:22:43.983Z,10.23
2023-03-16T16:25:37.649Z,10.08
2023-03-16T16:28:27.671Z,9.87
2023-03-16T16:31:17.492Z,9.59
2023-03-16T16:34:06.702Z,9.59
2023-03-16T16:36:55.602Z,9.45
2023-03-16T16:39:44.215Z,9.54
2023-03-16T16:42:32.582Z,9.32
2023-03-16T16:45:22.223Z,9.21
2023-03-16T16:48:26.659Z,9.38
2023-03-16T16:51:18.749Z,9.13
2023-03-16T16:54:15.838Z,9.12
2023-03-16T16:57:05.114Z,9.14
2023-03-16T16:59:53.477Z,9.07
2023-03-16T17:02:44.988Z,8.96
2023-03-16T17:05:34.673Z,8.86
2023-03-16T17:08:23.752Z,8.78
2023-03-16T17:11:17.702Z,8.85
2023-03-16T17:14:07.516Z,8.89
2023-03-16T17:16:56.015Z,8.73
2023-03-16T17:19:47.108Z,8.56
2023-03-16T17:22:36.793Z,8.44
2023-03-16T17:25:25.963Z,8.45
2023-03-16T17:28:16.763Z,8.50
2023-03-16T17:31:05.638Z,8.47
2023-03-16T17:33:55.445Z,8.28
2023-03-16T17:36:43.988Z,8.15
2023-03-16T17:39:34.825Z,8.14
2023-03-16T17:42:23.601Z,8.16
2023-03-16T17:45:18.865Z,8.18
2023-03-16T17:48:13.809Z,8.16
2023-03-16T17:51:02.182Z,8.09
2023-03-16T17:53:50.917Z,8.06
2023-03-16T17:56:41.667Z,7.85
2023-03-16T17:59:30.066Z,7.79
2023-03-16T18:02:41.157Z,7.73
2023-03-16T18:05:31.126Z,7.61
2023-03-16T18:08:25.815Z,7.64
2023-03-16T18:11:17.230Z,7.58
2023-03-16T18:14:08.793Z,7.55
2023-03-16T18:16:57.184Z,7.52
2023-03-16T18:19:46.997Z,7.55
2023-03-16T18:22:35.364Z,7.28
2023-03-16T18:25:36.102Z,7.21
2023-03-16T18:28:24.505Z,7.11
2023-03-16T18:31:21.385Z,7.00
2023-03-16T18:34:19.692Z,6.91
2023-03-16T18:37:10.782Z,6.82
2023-03-16T18:39:59.159Z,6.84
2023-03-16T18:42:47.833Z,6.82
2023-03-16T18:45:36.523Z,6.70
2023-03-16T18:48:29.314Z,6.74
2023-03-16T18:51:17.850Z,6.73
2023-03-16T18:54:14.449Z,6.69
2023-03-16T18:57:04.376Z,6.65
2023-03-16T18:59:53.140Z,6.40
2023-03-16T19:02:43.265Z,6.43
2023-03-16T19:05:36.010Z,6.30
2023-03-16T19:08:25.735Z,6.28
2023-03-16T19:11:14.072Z,6.29
2023-03-16T19:14:02.446Z,6.21
2023-03-16T19:16:51.645Z,6.28
2023-03-16T19:19:39.967Z,6.20
2023-03-16T19:22:29.713Z,6.18
2023-03-16T19:25:20.227Z,6.00
2023-03-16T19:28:13.903Z,6.07
2023-03-16T19:31:02.904Z,6.07
2023-03-16T19:33:52.020Z,6.04
2023-03-16T19:36:40.508Z,5.98
2023-03-16T19:39:30.291Z,5.97
2023-03-16T19:42:22.400Z,5.92
2023-03-16T19:45:18.417Z,5.85
2023-03-16T19:48:12.753Z,5.75
2023-03-16T19:51:01.449Z,5.69
2023-03-16T19:53:49.881Z,5.69
2023-03-16T19:56:39.594Z,5.53
2023-03-16T19:59:31.393Z,5.51
2023-03-16T20:02:26.550Z,5.51
2023-03-16T20:05:19.672Z,5.47
2023-03-16T20:08:19.491Z,5.43
2023-03-16T20:11:09.065Z,5.46
2023-03-16T20:13:59.304Z,5.41
2023-03-16T20:16:48.195Z,5.37
2023-03-16T20:19:36.640Z,5.39
2023-03-16T20:22:27.274Z,5.44
2023-03-16T20:25:16.252Z,5.43
2023-03-16T20:28:05.210Z,5.43
2023-03-16T20:30:55.122Z,5.43
2023-03-16T20:33:43.538Z,5.29
2023-03-16T20:36:31.968Z,5.23
2023-03-16T20:39:20.433Z,5.25
2023-03-16T20:42:14.885Z,5.40
2023-03-16T20:45:03.491Z,5.45
2023-03-16T20:47:53.879Z,5.46
2023-03-16T20:50:42.378Z,5.48
2023-03-16T20:53:30.726Z,5.44
2023-03-16T20:56:21.257Z,5.33
2023-03-16T20:59:12.410Z,5.37
2023-03-16T21:02:01.716Z,5.41
2023-03-16T21:04:51.465Z,5.28
2023-03-16T21:07:39.864Z,5.31
2023-03-16T21:10:28.613Z,5.24
2023-03-16T21:13:20.396Z,5.26
2023-03-16T21:16:11.452Z,5.22
2023-03-16T21:18:59.927Z,5.23
2023-03-16T21:21:49.852Z,5.12
2023-03-16T21:24:38.173Z,4.99
2023-03-16T21:27:28.620Z,5.06
2023-03-16T21:30:26.183Z,5.06
2023-03-16T21:33:20.241Z,4.98
2023-03-16T21:36:14.651Z,5.02
2023-03-16T21:39:19.406Z,4.96
2023-03-16T21:42:07.863Z,5.02
2023-03-16T21:44:56.292Z,5.01
2023-03-16T21:47:45.324Z,4.95
2023-03-16T21:50:35.044Z,5.02
2023-03-16T21:53:25.674Z,4.96
2023-03-16T21:56:17.794Z,4.99
2023-03-16T21:59:06.672Z,5.06
2023-03-16T22:02:01.997Z,5.04
2023-03-16T22:04:51.895Z,5.01
2023-03-16T22:07:40.487Z,4.69
2023-03-16T22:10:29.702Z,4.83
2023-03-16T22:13:20.398Z,4.91
2023-03-16T22:16:13.919Z,4.93
2023-03-16T22:19:02.298Z,4.90
2023-03-16T22:21:51.003Z,4.90
2023-03-16T22:24:39.421Z,4.88
2023-03-16T22:27:30.109Z,4.88
2023-03-16T22:30:22.749Z,4.89
2023-03-16T22:33:15.139Z,4.82
2023-03-16T22:36:08.184Z,4.81
2023-03-16T22:38:59.452Z,4.78
2023-03-16T22:41:47.874Z,4.75
2023-03-16T22:44:36.228Z,4.74
2023-03-16T22:47:28.736Z,4.70
2023-03-16T22:50:18.243Z,4.67
2023-03-16T22:53:09.383Z,4.67
2023-03-16T22:55:58.201Z,4.64
2023-03-16T22:58:49.957Z,4.63
2023-03-16T23:01:43.556Z,4.57
2023-03-16T23:04:33.801Z,4.58
2023-03-16T23:07:22.249Z,4.56
2023-03-16T23:10:17.174Z,4.53
2023-03-16T23:13:12.480Z,4.49
2023-03-16T23:16:01.319Z,4.46
2023-03-16T23:18:50.072Z,4.45
2023-03-16T23:21:40.079Z,4.40
2023-03-16T23:24:28.533Z,4.34
2023-03-16T23:27:19.085Z,4.23
2023-03-16T23:30:16.763Z,4.25
2023-03-16T23:33:05.360Z,4.25
2023-03-16T23:35:53.801Z,4.22
2023-03-16T23:38:43.960Z,4.14
2023-03-16T23:41:32.738Z,4.16
2023-03-16T23:44:23.538Z,4.22
2023-03-16T23:47:12.233Z,4.19
2023-03-16T23:50:00.679Z,4.09
2023-03-16T23:52:49.017Z,4.09
2023-03-16T23:55:39.003Z,4.10
2023-03-16T23:58:27.498Z,3.96
